sim
Sign-in with your pilot id or email,
or register
Callsign
Passwort

Schedule Details

Flight Number: RYR8807
Departure: Fuerteventura Airport (GCFV) at 10:45
Arrival: Milan Bergamo Il Caravaggio International Airport (LIME) at 14:50
Route: Ryanair Passenger Schedule. Enter filed route here before submitting Pirep.

Weather Information
Getting current METAR information for GCFV 172300Z AUTO 03003KT 010V070 9000 4200S NSC 23/20 Q1014
Getting current METAR information for LIME 172250Z 36004KT CAVOK 20/17 Q1016 NOSIG

Schedule Frequency

Route Map